sensor_id;sensor_type;location;lat;lon;timestamp;P1;durP1;ratioP1;P2;durP2;ratioP2
12665;SDS011;58531;59.050;17.416;2023-01-29T00:00:51;13.93;;;5.10;;
12665;SDS011;58531;59.050;17.416;2023-01-29T00:03:19;11.23;;;5.07;;
12665;SDS011;58531;59.050;17.416;2023-01-29T00:05:46;13.33;;;5.33;;
12665;SDS011;58531;59.050;17.416;2023-01-29T00:08:13;16.43;;;5.67;;
12665;SDS011;58531;59.050;17.416;2023-01-29T00:10:40;12.13;;;5.50;;
12665;SDS011;58531;59.050;17.416;2023-01-29T00:13:07;11.93;;;6.00;;
12665;SDS011;58531;59.050;17.416;2023-01-29T00:15:34;16.73;;;6.87;;
12665;SDS011;58531;59.050;17.416;2023-01-29T00:18:01;13.00;;;6.07;;
12665;SDS011;58531;59.050;17.416;2023-01-29T00:20:29;26.57;;;7.27;;
12665;SDS011;58531;59.050;17.416;2023-01-29T00:22:56;16.47;;;6.73;;
12665;SDS011;58531;59.050;17.416;2023-01-29T00:25:23;15.57;;;7.27;;
12665;SDS011;58531;59.050;17.416;2023-01-29T00:27:50;19.63;;;7.80;;
12665;SDS011;58531;59.050;17.416;2023-01-29T00:30:17;16.40;;;6.93;;
12665;SDS011;58531;59.050;17.416;2023-01-29T00:32:45;15.70;;;6.90;;
12665;SDS011;58531;59.050;17.416;2023-01-29T00:35:12;20.60;;;7.80;;
12665;SDS011;58531;59.050;17.416;2023-01-29T00:37:40;19.23;;;7.70;;
12665;SDS011;58531;59.050;17.416;2023-01-29T00:40:08;17.50;;;7.40;;
12665;SDS011;58531;59.050;17.416;2023-01-29T00:42:36;21.27;;;8.30;;
12665;SDS011;58531;59.050;17.416;2023-01-29T00:45:20;17.23;;;7.83;;
12665;SDS011;58531;59.050;17.416;2023-01-29T00:47:47;21.10;;;7.93;;
12665;SDS011;58531;59.050;17.416;2023-01-29T00:50:14;16.70;;;7.80;;
12665;SDS011;58531;59.050;17.416;2023-01-29T00:52:42;19.10;;;7.53;;
12665;SDS011;58531;59.050;17.416;2023-01-29T00:55:09;22.67;;;7.87;;
12665;SDS011;58531;59.050;17.416;2023-01-29T00:57:37;21.33;;;7.90;;
12665;SDS011;58531;59.050;17.416;2023-01-29T01:00:04;18.57;;;8.60;;
12665;SDS011;58531;59.050;17.416;2023-01-29T01:02:33;21.53;;;8.27;;
12665;SDS011;58531;59.050;17.416;2023-01-29T01:05:18;24.10;;;8.20;;
12665;SDS011;58531;59.050;17.416;2023-01-29T01:07:46;24.03;;;7.33;;
12665;SDS011;58531;59.050;17.416;2023-01-29T01:10:15;19.43;;;8.47;;
12665;SDS011;58531;59.050;17.416;2023-01-29T01:12:46;27.23;;;7.70;;
12665;SDS011;58531;59.050;17.416;2023-01-29T01:15:15;20.30;;;8.20;;
12665;SDS011;58531;59.050;17.416;2023-01-29T01:17:42;20.27;;;7.53;;
12665;SDS011;58531;59.050;17.416;2023-01-29T01:20:09;18.67;;;7.17;;
12665;SDS011;58531;59.050;17.416;2023-01-29T01:22:38;19.63;;;7.70;;
12665;SDS011;58531;59.050;17.416;2023-01-29T01:25:07;23.73;;;8.33;;
12665;SDS011;58531;59.050;17.416;2023-01-29T01:27:34;23.10;;;7.80;;
12665;SDS011;58531;59.050;17.416;2023-01-29T01:30:06;15.87;;;7.80;;
12665;SDS011;58531;59.050;17.416;2023-01-29T01:32:34;17.63;;;7.77;;
12665;SDS011;58531;59.050;17.416;2023-01-29T01:35:01;21.90;;;7.77;;
12665;SDS011;58531;59.050;17.416;2023-01-29T01:37:28;17.13;;;6.70;;
12665;SDS011;58531;59.050;17.416;2023-01-29T01:39:55;17.93;;;6.80;;
12665;SDS011;58531;59.050;17.416;2023-01-29T01:42:24;19.37;;;7.00;;
12665;SDS011;58531;59.050;17.416;2023-01-29T01:44:55;19.77;;;6.53;;
12665;SDS011;58531;59.050;17.416;2023-01-29T01:47:29;15.37;;;6.37;;
12665;SDS011;58531;59.050;17.416;2023-01-29T01:50:00;17.63;;;6.07;;
12665;SDS011;58531;59.050;17.416;2023-01-29T01:52:32;14.67;;;6.00;;
12665;SDS011;58531;59.050;17.416;2023-01-29T01:55:01;17.77;;;6.43;;
12665;SDS011;58531;59.050;17.416;2023-01-29T01:57:30;20.53;;;6.63;;
12665;SDS011;58531;59.050;17.416;2023-01-29T01:59:58;15.90;;;5.93;;
12665;SDS011;58531;59.050;17.416;2023-01-29T02:02:34;14.73;;;5.30;;
12665;SDS011;58531;59.050;17.416;2023-01-29T02:05:20;12.20;;;4.73;;
12665;SDS011;58531;59.050;17.416;2023-01-29T02:08:04;11.27;;;5.27;;
12665;SDS011;58531;59.050;17.416;2023-01-29T02:10:48;13.43;;;5.63;;
12665;SDS011;58531;59.050;17.416;2023-01-29T02:13:17;12.83;;;5.53;;
12665;SDS011;58531;59.050;17.416;2023-01-29T02:15:44;20.20;;;6.27;;
12665;SDS011;58531;59.050;17.416;2023-01-29T02:18:13;12.63;;;5.27;;
12665;SDS011;58531;59.050;17.416;2023-01-29T02:20:43;14.13;;;5.40;;
12665;SDS011;58531;59.050;17.416;2023-01-29T02:23:24;11.23;;;4.80;;
12665;SDS011;58531;59.050;17.416;2023-01-29T02:26:20;11.87;;;4.77;;
12665;SDS011;58531;59.050;17.416;2023-01-29T02:28:59;14.00;;;4.97;;
12665;SDS011;58531;59.050;17.416;2023-01-29T02:31:48;16.20;;;6.03;;
12665;SDS011;58531;59.050;17.416;2023-01-29T02:34:25;18.53;;;5.43;;
12665;SDS011;58531;59.050;17.416;2023-01-29T02:37:18;20.00;;;5.97;;
12665;SDS011;58531;59.050;17.416;2023-01-29T02:39:57;19.77;;;4.87;;
12665;SDS011;58531;59.050;17.416;2023-01-29T02:42:34;21.33;;;6.10;;
12665;SDS011;58531;59.050;17.416;2023-01-29T02:45:11;22.20;;;5.53;;
12665;SDS011;58531;59.050;17.416;2023-01-29T02:47:41;12.60;;;6.17;;
12665;SDS011;58531;59.050;17.416;2023-01-29T02:50:14;17.63;;;5.53;;
12665;SDS011;58531;59.050;17.416;2023-01-29T02:52:47;13.53;;;5.47;;
12665;SDS011;58531;59.050;17.416;2023-01-29T02:55:23;14.33;;;6.03;;
12665;SDS011;58531;59.050;17.416;2023-01-29T02:57:58;14.93;;;5.20;;
12665;SDS011;58531;59.050;17.416;2023-01-29T03:00:31;17.10;;;5.73;;
12665;SDS011;58531;59.050;17.416;2023-01-29T03:03:02;14.80;;;6.10;;
12665;SDS011;58531;59.050;17.416;2023-01-29T03:05:36;10.27;;;5.30;;
12665;SDS011;58531;59.050;17.416;2023-01-29T03:08:17;17.00;;;6.13;;
12665;SDS011;58531;59.050;17.416;2023-01-29T03:10:50;17.13;;;6.10;;
12665;SDS011;58531;59.050;17.416;2023-01-29T03:13:24;14.07;;;6.20;;
12665;SDS011;58531;59.050;17.416;2023-01-29T03:15:57;10.40;;;5.93;;
12665;SDS011;58531;59.050;17.416;2023-01-29T03:18:30;17.40;;;5.87;;
12665;SDS011;58531;59.050;17.416;2023-01-29T03:21:05;12.67;;;5.20;;
12665;SDS011;58531;59.050;17.416;2023-01-29T03:23:50;8.63;;;5.30;;
12665;SDS011;58531;59.050;17.416;2023-01-29T03:26:37;11.50;;;5.17;;
12665;SDS011;58531;59.050;17.416;2023-01-29T03:29:23;11.27;;;5.93;;
12665;SDS011;58531;59.050;17.416;2023-01-29T03:32:09;12.90;;;5.40;;
12665;SDS011;58531;59.050;17.416;2023-01-29T03:34:38;18.03;;;5.30;;
12665;SDS011;58531;59.050;17.416;2023-01-29T03:37:09;15.67;;;5.23;;
12665;SDS011;58531;59.050;17.416;2023-01-29T03:39:42;10.23;;;4.57;;
12665;SDS011;58531;59.050;17.416;2023-01-29T03:42:11;15.33;;;5.87;;
12665;SDS011;58531;59.050;17.416;2023-01-29T03:44:46;14.03;;;5.27;;
12665;SDS011;58531;59.050;17.416;2023-01-29T03:47:21;13.23;;;5.40;;
12665;SDS011;58531;59.050;17.416;2023-01-29T03:49:55;16.50;;;5.37;;
12665;SDS011;58531;59.050;17.416;2023-01-29T03:52:26;10.47;;;5.00;;
12665;SDS011;58531;59.050;17.416;2023-01-29T03:55:00;12.87;;;5.23;;
12665;SDS011;58531;59.050;17.416;2023-01-29T03:57:35;15.60;;;5.43;;
12665;SDS011;58531;59.050;17.416;2023-01-29T04:00:08;14.97;;;5.70;;
12665;SDS011;58531;59.050;17.416;2023-01-29T04:02:45;12.90;;;4.80;;
12665;SDS011;58531;59.050;17.416;2023-01-29T04:05:17;14.23;;;5.20;;
12665;SDS011;58531;59.050;17.416;2023-01-29T04:07:49;13.13;;;4.80;;
12665;SDS011;58531;59.050;17.416;2023-01-29T04:10:21;15.57;;;4.77;;
12665;SDS011;58531;59.050;17.416;2023-01-29T04:12:53;9.43;;;4.20;;
12665;SDS011;58531;59.050;17.416;2023-01-29T04:15:23;10.70;;;4.70;;
12665;SDS011;58531;59.050;17.416;2023-01-29T04:17:55;12.30;;;4.83;;
12665;SDS011;58531;59.050;17.416;2023-01-29T04:20:22;10.80;;;5.03;;
12665;SDS011;58531;59.050;17.416;2023-01-29T04:22:50;13.20;;;4.30;;
12665;SDS011;58531;59.050;17.416;2023-01-29T04:25:18;13.43;;;4.47;;
12665;SDS011;58531;59.050;17.416;2023-01-29T04:27:51;12.17;;;4.03;;
12665;SDS011;58531;59.050;17.416;2023-01-29T04:30:29;11.53;;;4.40;;
12665;SDS011;58531;59.050;17.416;2023-01-29T04:33:05;15.50;;;4.33;;
12665;SDS011;58531;59.050;17.416;2023-01-29T04:35:43;9.73;;;4.17;;
12665;SDS011;58531;59.050;17.416;2023-01-29T04:38:21;8.70;;;4.13;;
12665;SDS011;58531;59.050;17.416;2023-01-29T04:41:00;12.73;;;4.23;;
12665;SDS011;58531;59.050;17.416;2023-01-29T04:43:33;15.17;;;4.33;;
12665;SDS011;58531;59.050;17.416;2023-01-29T04:46:08;11.90;;;4.27;;
12665;SDS011;58531;59.050;17.416;2023-01-29T04:48:43;13.03;;;4.53;;
12665;SDS011;58531;59.050;17.416;2023-01-29T04:51:21;14.07;;;4.67;;
12665;SDS011;58531;59.050;17.416;2023-01-29T04:53:58;12.53;;;4.33;;
12665;SDS011;58531;59.050;17.416;2023-01-29T04:56:33;10.47;;;3.87;;
12665;SDS011;58531;59.050;17.416;2023-01-29T04:59:05;9.87;;;4.03;;
12665;SDS011;58531;59.050;17.416;2023-01-29T05:01:34;12.33;;;4.07;;
12665;SDS011;58531;59.050;17.416;2023-01-29T05:04:06;10.00;;;4.27;;
12665;SDS011;58531;59.050;17.416;2023-01-29T05:06:37;11.43;;;4.13;;
12665;SDS011;58531;59.050;17.416;2023-01-29T05:09:05;13.00;;;4.23;;
12665;SDS011;58531;59.050;17.416;2023-01-29T05:11:33;10.03;;;4.10;;
12665;SDS011;58531;59.050;17.416;2023-01-29T05:14:02;10.27;;;3.90;;
12665;SDS011;58531;59.050;17.416;2023-01-29T05:16:33;12.70;;;3.83;;
12665;SDS011;58531;59.050;17.416;2023-01-29T05:19:07;18.90;;;4.00;;
12665;SDS011;58531;59.050;17.416;2023-01-29T05:21:35;11.87;;;3.80;;
12665;SDS011;58531;59.050;17.416;2023-01-29T05:24:07;8.90;;;3.80;;
12665;SDS011;58531;59.050;17.416;2023-01-29T05:26:35;8.90;;;3.40;;
12665;SDS011;58531;59.050;17.416;2023-01-29T05:29:20;13.77;;;3.43;;
12665;SDS011;58531;59.050;17.416;2023-01-29T05:31:47;8.77;;;3.43;;
12665;SDS011;58531;59.050;17.416;2023-01-29T05:34:15;12.43;;;4.03;;
12665;SDS011;58531;59.050;17.416;2023-01-29T05:36:42;11.17;;;3.67;;
12665;SDS011;58531;59.050;17.416;2023-01-29T05:39:09;7.00;;;3.20;;
12665;SDS011;58531;59.050;17.416;2023-01-29T05:41:36;10.63;;;4.20;;
12665;SDS011;58531;59.050;17.416;2023-01-29T05:44:03;9.13;;;4.07;;
12665;SDS011;58531;59.050;17.416;2023-01-29T05:46:30;7.57;;;3.80;;
12665;SDS011;58531;59.050;17.416;2023-01-29T05:48:57;12.23;;;3.60;;
12665;SDS011;58531;59.050;17.416;2023-01-29T05:51:26;14.27;;;3.77;;
12665;SDS011;58531;59.050;17.416;2023-01-29T05:53:52;10.23;;;3.43;;
12665;SDS011;58531;59.050;17.416;2023-01-29T05:56:19;14.40;;;3.90;;
12665;SDS011;58531;59.050;17.416;2023-01-29T05:58:46;13.97;;;3.43;;
12665;SDS011;58531;59.050;17.416;2023-01-29T06:01:13;9.90;;;3.50;;
12665;SDS011;58531;59.050;17.416;2023-01-29T06:03:42;8.33;;;3.47;;
12665;SDS011;58531;59.050;17.416;2023-01-29T06:06:09;11.17;;;3.53;;
12665;SDS011;58531;59.050;17.416;2023-01-29T06:08:37;11.23;;;3.30;;
12665;SDS011;58531;59.050;17.416;2023-01-29T06:11:06;10.17;;;3.23;;
12665;SDS011;58531;59.050;17.416;2023-01-29T06:13:34;11.40;;;3.70;;
12665;SDS011;58531;59.050;17.416;2023-01-29T06:16:03;12.67;;;3.60;;
12665;SDS011;58531;59.050;17.416;2023-01-29T06:18:30;14.20;;;3.80;;
12665;SDS011;58531;59.050;17.416;2023-01-29T06:20:58;12.30;;;3.47;;
12665;SDS011;58531;59.050;17.416;2023-01-29T06:23:27;14.67;;;3.57;;
12665;SDS011;58531;59.050;17.416;2023-01-29T06:25:59;12.77;;;3.53;;
12665;SDS011;58531;59.050;17.416;2023-01-29T06:28:26;15.20;;;3.67;;
12665;SDS011;58531;59.050;17.416;2023-01-29T06:30:55;12.07;;;2.97;;
12665;SDS011;58531;59.050;17.416;2023-01-29T06:33:23;11.83;;;3.03;;
12665;SDS011;58531;59.050;17.416;2023-01-29T06:35:54;10.97;;;3.90;;
12665;SDS011;58531;59.050;17.416;2023-01-29T06:38:21;6.83;;;3.10;;
12665;SDS011;58531;59.050;17.416;2023-01-29T06:40:48;12.30;;;3.60;;
12665;SDS011;58531;59.050;17.416;2023-01-29T06:43:16;10.93;;;3.30;;
12665;SDS011;58531;59.050;17.416;2023-01-29T06:45:47;8.60;;;3.20;;
12665;SDS011;58531;59.050;17.416;2023-01-29T06:48:14;14.20;;;3.60;;
12665;SDS011;58531;59.050;17.416;2023-01-29T06:50:42;9.40;;;3.37;;
12665;SDS011;58531;59.050;17.416;2023-01-29T06:53:09;7.77;;;3.47;;
12665;SDS011;58531;59.050;17.416;2023-01-29T06:55:36;20.37;;;3.60;;
12665;SDS011;58531;59.050;17.416;2023-01-29T06:58:06;12.67;;;3.37;;
12665;SDS011;58531;59.050;17.416;2023-01-29T07:00:35;15.47;;;3.37;;
12665;SDS011;58531;59.050;17.416;2023-01-29T07:03:03;10.23;;;2.77;;
12665;SDS011;58531;59.050;17.416;2023-01-29T07:05:30;11.77;;;3.20;;
12665;SDS011;58531;59.050;17.416;2023-01-29T07:07:57;12.77;;;3.27;;
12665;SDS011;58531;59.050;17.416;2023-01-29T07:10:24;13.43;;;4.00;;
12665;SDS011;58531;59.050;17.416;2023-01-29T07:12:51;8.70;;;3.20;;
12665;SDS011;58531;59.050;17.416;2023-01-29T07:15:18;11.07;;;3.73;;
12665;SDS011;58531;59.050;17.416;2023-01-29T07:17:55;14.70;;;3.80;;
12665;SDS011;58531;59.050;17.416;2023-01-29T07:20:23;11.47;;;2.90;;
12665;SDS011;58531;59.050;17.416;2023-01-29T07:22:50;8.10;;;2.80;;
12665;SDS011;58531;59.050;17.416;2023-01-29T07:25:17;9.00;;;3.53;;
12665;SDS011;58531;59.050;17.416;2023-01-29T07:27:44;7.63;;;2.80;;
12665;SDS011;58531;59.050;17.416;2023-01-29T07:30:11;8.60;;;2.93;;
12665;SDS011;58531;59.050;17.416;2023-01-29T07:32:39;12.73;;;2.87;;
12665;SDS011;58531;59.050;17.416;2023-01-29T07:35:07;11.53;;;3.13;;
12665;SDS011;58531;59.050;17.416;2023-01-29T07:37:35;9.70;;;3.33;;
12665;SDS011;58531;59.050;17.416;2023-01-29T07:40:02;9.57;;;2.80;;
12665;SDS011;58531;59.050;17.416;2023-01-29T07:42:34;15.40;;;3.40;;
12665;SDS011;58531;59.050;17.416;2023-01-29T07:45:01;15.87;;;3.03;;
12665;SDS011;58531;59.050;17.416;2023-01-29T07:47:28;13.03;;;3.97;;
12665;SDS011;58531;59.050;17.416;2023-01-29T07:49:55;11.20;;;4.10;;
12665;SDS011;58531;59.050;17.416;2023-01-29T07:52:23;13.93;;;3.30;;
12665;SDS011;58531;59.050;17.416;2023-01-29T07:54:50;13.90;;;2.97;;
12665;SDS011;58531;59.050;17.416;2023-01-29T07:57:17;13.77;;;3.47;;
12665;SDS011;58531;59.050;17.416;2023-01-29T07:59:44;12.70;;;2.93;;
12665;SDS011;58531;59.050;17.416;2023-01-29T08:02:10;8.33;;;2.93;;
12665;SDS011;58531;59.050;17.416;2023-01-29T08:04:37;10.67;;;2.70;;
12665;SDS011;58531;59.050;17.416;2023-01-29T08:07:04;14.30;;;3.10;;
12665;SDS011;58531;59.050;17.416;2023-01-29T08:09:34;15.10;;;3.50;;
12665;SDS011;58531;59.050;17.416;2023-01-29T08:12:02;12.30;;;3.33;;
12665;SDS011;58531;59.050;17.416;2023-01-29T08:14:29;10.40;;;2.97;;
12665;SDS011;58531;59.050;17.416;2023-01-29T08:16:56;17.97;;;4.50;;
12665;SDS011;58531;59.050;17.416;2023-01-29T08:19:22;12.50;;;3.90;;
12665;SDS011;58531;59.050;17.416;2023-01-29T08:21:49;10.03;;;3.30;;
12665;SDS011;58531;59.050;17.416;2023-01-29T08:24:16;10.03;;;3.43;;
12665;SDS011;58531;59.050;17.416;2023-01-29T08:26:45;9.83;;;3.03;;
12665;SDS011;58531;59.050;17.416;2023-01-29T08:29:11;12.37;;;2.97;;
12665;SDS011;58531;59.050;17.416;2023-01-29T08:31:38;14.27;;;3.47;;
12665;SDS011;58531;59.050;17.416;2023-01-29T08:34:05;9.83;;;2.83;;
12665;SDS011;58531;59.050;17.416;2023-01-29T08:36:32;11.13;;;3.17;;
12665;SDS011;58531;59.050;17.416;2023-01-29T08:38:59;9.73;;;3.10;;
12665;SDS011;58531;59.050;17.416;2023-01-29T08:41:26;15.83;;;2.90;;
12665;SDS011;58531;59.050;17.416;2023-01-29T08:43:54;13.70;;;2.90;;
12665;SDS011;58531;59.050;17.416;2023-01-29T08:46:22;14.07;;;3.30;;
12665;SDS011;58531;59.050;17.416;2023-01-29T08:48:49;11.70;;;2.97;;
12665;SDS011;58531;59.050;17.416;2023-01-29T08:51:16;11.60;;;2.57;;
12665;SDS011;58531;59.050;17.416;2023-01-29T08:53:42;7.33;;;2.47;;
12665;SDS011;58531;59.050;17.416;2023-01-29T08:56:09;15.50;;;2.80;;
12665;SDS011;58531;59.050;17.416;2023-01-29T08:58:36;14.03;;;2.37;;
12665;SDS011;58531;59.050;17.416;2023-01-29T09:01:08;14.80;;;2.40;;
12665;SDS011;58531;59.050;17.416;2023-01-29T09:03:35;16.67;;;5.10;;
12665;SDS011;58531;59.050;17.416;2023-01-29T09:06:05;18.00;;;4.60;;
12665;SDS011;58531;59.050;17.416;2023-01-29T09:08:32;14.50;;;3.87;;
12665;SDS011;58531;59.050;17.416;2023-01-29T09:10:59;9.00;;;3.33;;
12665;SDS011;58531;59.050;17.416;2023-01-29T09:13:26;11.60;;;2.90;;
12665;SDS011;58531;59.050;17.416;2023-01-29T09:15:53;10.30;;;3.00;;
12665;SDS011;58531;59.050;17.416;2023-01-29T09:18:21;10.40;;;3.07;;
12665;SDS011;58531;59.050;17.416;2023-01-29T09:20:48;12.53;;;3.20;;
12665;SDS011;58531;59.050;17.416;2023-01-29T09:23:15;8.70;;;2.43;;
12665;SDS011;58531;59.050;17.416;2023-01-29T09:25:42;11.47;;;2.67;;
12665;SDS011;58531;59.050;17.416;2023-01-29T09:28:09;11.77;;;2.37;;
12665;SDS011;58531;59.050;17.416;2023-01-29T09:30:36;12.77;;;2.50;;
12665;SDS011;58531;59.050;17.416;2023-01-29T09:33:03;11.17;;;3.27;;
12665;SDS011;58531;59.050;17.416;2023-01-29T09:35:31;14.63;;;2.80;;
12665;SDS011;58531;59.050;17.416;2023-01-29T09:37:59;13.60;;;2.73;;
12665;SDS011;58531;59.050;17.416;2023-01-29T09:40:29;8.60;;;2.47;;
12665;SDS011;58531;59.050;17.416;2023-01-29T09:43:01;10.03;;;3.00;;
12665;SDS011;58531;59.050;17.416;2023-01-29T09:45:31;10.97;;;2.50;;
12665;SDS011;58531;59.050;17.416;2023-01-29T09:47:59;10.90;;;2.80;;
12665;SDS011;58531;59.050;17.416;2023-01-29T09:50:31;8.77;;;2.33;;
12665;SDS011;58531;59.050;17.416;2023-01-29T09:53:06;11.03;;;2.70;;
12665;SDS011;58531;59.050;17.416;2023-01-29T09:55:41;14.17;;;2.57;;
12665;SDS011;58531;59.050;17.416;2023-01-29T09:58:16;15.83;;;2.73;;
12665;SDS011;58531;59.050;17.416;2023-01-29T10:00:49;12.23;;;2.97;;
12665;SDS011;58531;59.050;17.416;2023-01-29T10:03:26;9.47;;;2.57;;
12665;SDS011;58531;59.050;17.416;2023-01-29T10:06:22;7.87;;;2.63;;
12665;SDS011;58531;59.050;17.416;2023-01-29T10:12:05;12.47;;;2.33;;
12665;SDS011;58531;59.050;17.416;2023-01-29T10:14:58;8.33;;;2.80;;
12665;SDS011;58531;59.050;17.416;2023-01-29T10:17:39;10.90;;;2.80;;
12665;SDS011;58531;59.050;17.416;2023-01-29T10:20:26;9.87;;;2.27;;
12665;SDS011;58531;59.050;17.416;2023-01-29T10:23:06;15.70;;;2.97;;
12665;SDS011;58531;59.050;17.416;2023-01-29T10:25:44;13.30;;;2.87;;
12665;SDS011;58531;59.050;17.416;2023-01-29T10:28:14;9.93;;;2.30;;
12665;SDS011;58531;59.050;17.416;2023-01-29T10:30:45;10.07;;;2.17;;
12665;SDS011;58531;59.050;17.416;2023-01-29T10:33:16;11.13;;;2.60;;
12665;SDS011;58531;59.050;17.416;2023-01-29T10:35:48;7.13;;;2.40;;
12665;SDS011;58531;59.050;17.416;2023-01-29T10:38:22;12.73;;;2.40;;
12665;SDS011;58531;59.050;17.416;2023-01-29T10:40:58;12.10;;;2.40;;
12665;SDS011;58531;59.050;17.416;2023-01-29T10:43:34;14.20;;;2.37;;
12665;SDS011;58531;59.050;17.416;2023-01-29T10:46:11;6.93;;;1.93;;
12665;SDS011;58531;59.050;17.416;2023-01-29T10:48:49;7.40;;;2.13;;
12665;SDS011;58531;59.050;17.416;2023-01-29T10:51:29;11.33;;;2.47;;
12665;SDS011;58531;59.050;17.416;2023-01-29T10:54:12;7.37;;;2.23;;
12665;SDS011;58531;59.050;17.416;2023-01-29T10:56:54;10.43;;;2.10;;
12665;SDS011;58531;59.050;17.416;2023-01-29T10:59:35;13.53;;;2.67;;
12665;SDS011;58531;59.050;17.416;2023-01-29T11:02:13;14.03;;;2.73;;
12665;SDS011;58531;59.050;17.416;2023-01-29T11:04:42;10.07;;;2.13;;
12665;SDS011;58531;59.050;17.416;2023-01-29T11:07:09;9.80;;;2.17;;
12665;SDS011;58531;59.050;17.416;2023-01-29T11:09:40;7.57;;;2.03;;
12665;SDS011;58531;59.050;17.416;2023-01-29T11:12:12;12.83;;;3.60;;
12665;SDS011;58531;59.050;17.416;2023-01-29T11:14:41;10.50;;;2.23;;
12665;SDS011;58531;59.050;17.416;2023-01-29T11:17:14;9.27;;;2.77;;
12665;SDS011;58531;59.050;17.416;2023-01-29T11:19:43;11.73;;;2.03;;
12665;SDS011;58531;59.050;17.416;2023-01-29T11:22:12;7.00;;;1.80;;
12665;SDS011;58531;59.050;17.416;2023-01-29T11:24:41;9.83;;;1.97;;
12665;SDS011;58531;59.050;17.416;2023-01-29T11:27:16;9.23;;;1.93;;
12665;SDS011;58531;59.050;17.416;2023-01-29T11:29:50;11.83;;;2.57;;
12665;SDS011;58531;59.050;17.416;2023-01-29T11:32:23;15.40;;;2.30;;
12665;SDS011;58531;59.050;17.416;2023-01-29T11:34:55;16.67;;;2.07;;
12665;SDS011;58531;59.050;17.416;2023-01-29T11:37:22;17.07;;;3.10;;
12665;SDS011;58531;59.050;17.416;2023-01-29T11:39:59;9.30;;;2.07;;
12665;SDS011;58531;59.050;17.416;2023-01-29T11:42:29;9.57;;;1.80;;
12665;SDS011;58531;59.050;17.416;2023-01-29T11:44:56;11.93;;;2.27;;
12665;SDS011;58531;59.050;17.416;2023-01-29T11:47:25;9.53;;;2.10;;
12665;SDS011;58531;59.050;17.416;2023-01-29T11:49:54;7.30;;;1.97;;
12665;SDS011;58531;59.050;17.416;2023-01-29T11:52:22;12.40;;;2.07;;
12665;SDS011;58531;59.050;17.416;2023-01-29T11:54:51;7.37;;;2.03;;
12665;SDS011;58531;59.050;17.416;2023-01-29T11:57:28;10.53;;;2.03;;
12665;SDS011;58531;59.050;17.416;2023-01-29T11:59:58;9.10;;;2.10;;
12665;SDS011;58531;59.050;17.416;2023-01-29T12:02:31;9.53;;;1.97;;
12665;SDS011;58531;59.050;17.416;2023-01-29T12:05:03;9.47;;;2.17;;
12665;SDS011;58531;59.050;17.416;2023-01-29T12:07:40;10.70;;;2.03;;
12665;SDS011;58531;59.050;17.416;2023-01-29T12:10:26;8.00;;;1.97;;
12665;SDS011;58531;59.050;17.416;2023-01-29T12:13:04;10.83;;;2.03;;
12665;SDS011;58531;59.050;17.416;2023-01-29T12:15:32;8.73;;;2.13;;
12665;SDS011;58531;59.050;17.416;2023-01-29T12:18:03;10.50;;;2.03;;
12665;SDS011;58531;59.050;17.416;2023-01-29T12:20:34;9.73;;;2.73;;
12665;SDS011;58531;59.050;17.416;2023-01-29T12:23:07;10.67;;;3.13;;
12665;SDS011;58531;59.050;17.416;2023-01-29T12:25:49;10.63;;;2.20;;
12665;SDS011;58531;59.050;17.416;2023-01-29T12:28:33;8.07;;;1.90;;
12665;SDS011;58531;59.050;17.416;2023-01-29T12:31:10;10.30;;;2.77;;
12665;SDS011;58531;59.050;17.416;2023-01-29T12:33:49;7.53;;;2.43;;
12665;SDS011;58531;59.050;17.416;2023-01-29T12:36:20;8.37;;;2.53;;
12665;SDS011;58531;59.050;17.416;2023-01-29T12:38:52;8.70;;;2.00;;
12665;SDS011;58531;59.050;17.416;2023-01-29T12:41:29;13.67;;;2.50;;
12665;SDS011;58531;59.050;17.416;2023-01-29T12:44:04;9.70;;;2.50;;
12665;SDS011;58531;59.050;17.416;2023-01-29T12:46:38;9.10;;;2.53;;
12665;SDS011;58531;59.050;17.416;2023-01-29T12:49:10;7.10;;;2.30;;
12665;SDS011;58531;59.050;17.416;2023-01-29T12:51:42;6.70;;;1.90;;
12665;SDS011;58531;59.050;17.416;2023-01-29T12:54:16;8.07;;;1.87;;
12665;SDS011;58531;59.050;17.416;2023-01-29T12:56:47;8.87;;;2.60;;
12665;SDS011;58531;59.050;17.416;2023-01-29T12:59:21;10.47;;;2.50;;
12665;SDS011;58531;59.050;17.416;2023-01-29T13:01:53;7.50;;;2.00;;
12665;SDS011;58531;59.050;17.416;2023-01-29T13:04:28;9.07;;;2.10;;
12665;SDS011;58531;59.050;17.416;2023-01-29T13:07:04;7.00;;;1.87;;
12665;SDS011;58531;59.050;17.416;2023-01-29T13:09:38;9.00;;;1.80;;
12665;SDS011;58531;59.050;17.416;2023-01-29T13:12:11;5.63;;;1.60;;
12665;SDS011;58531;59.050;17.416;2023-01-29T13:14:43;10.47;;;2.40;;
12665;SDS011;58531;59.050;17.416;2023-01-29T13:17:15;6.73;;;2.10;;
12665;SDS011;58531;59.050;17.416;2023-01-29T13:19:48;8.50;;;2.30;;
12665;SDS011;58531;59.050;17.416;2023-01-29T13:22:19;4.10;;;1.70;;
12665;SDS011;58531;59.050;17.416;2023-01-29T13:24:50;6.50;;;1.60;;
12665;SDS011;58531;59.050;17.416;2023-01-29T13:27:19;4.07;;;1.43;;
12665;SDS011;58531;59.050;17.416;2023-01-29T13:29:50;9.30;;;1.60;;
12665;SDS011;58531;59.050;17.416;2023-01-29T13:32:19;6.63;;;1.90;;
12665;SDS011;58531;59.050;17.416;2023-01-29T13:34:50;6.07;;;1.90;;
12665;SDS011;58531;59.050;17.416;2023-01-29T13:37:20;2.83;;;1.90;;
12665;SDS011;58531;59.050;17.416;2023-01-29T13:39:53;7.87;;;2.23;;
12665;SDS011;58531;59.050;17.416;2023-01-29T13:42:23;11.67;;;2.60;;
12665;SDS011;58531;59.050;17.416;2023-01-29T13:45:01;12.33;;;2.80;;
12665;SDS011;58531;59.050;17.416;2023-01-29T13:47:32;7.20;;;2.53;;
12665;SDS011;58531;59.050;17.416;2023-01-29T13:50:02;17.13;;;8.13;;
12665;SDS011;58531;59.050;17.416;2023-01-29T13:52:36;8.73;;;2.93;;
12665;SDS011;58531;59.050;17.416;2023-01-29T13:55:08;7.10;;;1.90;;
12665;SDS011;58531;59.050;17.416;2023-01-29T13:57:49;5.17;;;1.60;;
12665;SDS011;58531;59.050;17.416;2023-01-29T14:06:34;4.93;;;2.00;;
12665;SDS011;58531;59.050;17.416;2023-01-29T14:09:25;9.43;;;1.70;;
12665;SDS011;58531;59.050;17.416;2023-01-29T14:11:57;8.97;;;1.73;;
12665;SDS011;58531;59.050;17.416;2023-01-29T14:17:18;5.13;;;1.50;;
12665;SDS011;58531;59.050;17.416;2023-01-29T14:19:46;6.37;;;2.70;;
12665;SDS011;58531;59.050;17.416;2023-01-29T14:22:18;6.60;;;1.70;;
12665;SDS011;58531;59.050;17.416;2023-01-29T14:24:47;4.90;;;1.90;;
12665;SDS011;58531;59.050;17.416;2023-01-29T14:27:19;4.77;;;1.50;;
12665;SDS011;58531;59.050;17.416;2023-01-29T14:29:49;3.63;;;1.40;;
12665;SDS011;58531;59.050;17.416;2023-01-29T14:32:23;5.67;;;1.30;;
12665;SDS011;58531;59.050;17.416;2023-01-29T14:34:51;4.53;;;1.73;;
12665;SDS011;58531;59.050;17.416;2023-01-29T14:37:24;5.83;;;1.70;;
12665;SDS011;58531;59.050;17.416;2023-01-29T14:39:57;7.90;;;1.50;;
12665;SDS011;58531;59.050;17.416;2023-01-29T14:42:33;6.10;;;1.60;;
12665;SDS011;58531;59.050;17.416;2023-01-29T14:45:07;6.60;;;1.43;;
12665;SDS011;58531;59.050;17.416;2023-01-29T14:48:04;6.27;;;1.90;;
12665;SDS011;58531;59.050;17.416;2023-01-29T14:51:07;6.03;;;2.90;;
12665;SDS011;58531;59.050;17.416;2023-01-29T14:53:43;3.40;;;2.23;;
12665;SDS011;58531;59.050;17.416;2023-01-29T14:56:16;4.57;;;1.37;;
12665;SDS011;58531;59.050;17.416;2023-01-29T14:58:46;6.20;;;1.57;;
12665;SDS011;58531;59.050;17.416;2023-01-29T15:01:19;8.10;;;2.47;;
12665;SDS011;58531;59.050;17.416;2023-01-29T15:03:49;4.87;;;1.40;;